Time;durP1;ratioP1;P1;durP2;ratioP2;P2;SDS_P1;SDS_P2;PMS_P1;PMS_P2;Temp;Humidity;BMP_temperature;BMP_pressure;BME280_temperature;BME280_humidity;BME280_pressure;Samples;Min_cycle;Max_cycle;Signal;HPM_P1;HPM_P2
2022/07/07 00:00:12;;;;;;;15.38;8.80;;;;;;;30.06;69.87;100669.41;5040330;28;66537;-33
2022/07/07 00:02:44;;;;;;;13.90;9.43;;;;;;;30.41;70.33;100724.94;5040353;28;69644;-34
2022/07/07 00:05:16;;;;;;;12.40;8.95;;;;;;;30.42;71.01;100726.59;5039617;28;66184;-32
2022/07/07 00:07:47;;;;;;;13.10;8.43;;;;;;;30.45;71.46;100721.59;5022421;28;70600;-35
2022/07/07 00:10:19;;;;;;;9.38;7.78;;;;;;;30.48;71.86;100723.03;5038914;28;66686;-35
2022/07/07 00:12:51;;;;;;;;;;;;;;;30.25;72.97;100729.03;5040306;28;69999;-35
2022/07/07 00:15:22;;;;;;;11.20;7.85;;;;;;;30.56;70.46;100733.53;5040653;28;66693;-35
2022/07/07 00:17:54;;;;;;;;;;;;;;;30.30;72.34;100728.38;5034163;28;70056;-35
2022/07/07 00:20:25;;;;;;;17.42;8.23;;;;;;;30.62;72.11;100721.00;5017588;28;66330;-36
2022/07/07 00:22:57;;;;;;;16.15;8.48;;;;;;;30.67;72.27;100715.75;5038764;28;70591;-34
2022/07/07 00:25:28;;;;;;;11.05;7.38;;;;;;;30.69;72.22;100717.19;5037114;28;65593;-34
2022/07/07 00:28:00;;;;;;;11.35;7.65;;;;;;;30.72;72.59;100727.56;5036532;28;70045;-33
2022/07/07 00:30:31;;;;;;;7.80;7.03;;;;;;;30.78;72.50;100730.44;5034382;28;66538;-34
2022/07/07 00:33:03;;;;;;;15.57;7.72;;;;;;;30.78;72.58;100720.44;5038321;28;69335;-32
2022/07/07 00:35:35;;;;;;;12.13;7.70;;;;;;;30.82;72.22;100726.28;5038511;28;65843;-32
2022/07/07 00:38:06;;;;;;;13.02;7.28;;;;;;;30.82;72.24;100720.88;5017632;28;70065;-34
2022/07/07 00:40:38;;;;;;;12.60;7.10;;;;;;;30.86;72.34;100727.47;5037160;28;65355;-33
2022/07/07 00:43:10;;;;;;;15.18;7.13;;;;;;;30.91;71.92;100730.34;5036644;28;69564;-33
2022/07/07 00:45:41;;;;;;;16.42;7.70;;;;;;;30.91;72.31;100727.63;5038194;28;64912;-33
2022/07/07 00:48:12;;;;;;;13.80;7.20;;;;;;;30.91;72.17;100730.34;5039587;28;69886;-33
2022/07/07 00:50:45;;;;;;;15.25;8.10;;;;;;;30.95;72.48;100736.97;5036903;28;66940;-33
2022/07/07 00:53:16;;;;;;;13.45;7.57;;;;;;;30.87;72.27;100718.28;4994905;28;69670;-32
2022/07/07 00:55:46;;;;;;;13.57;8.20;;;;;;;30.98;72.51;100733.81;5038767;28;66339;-33
2022/07/07 00:58:17;;;;;;;12.80;7.40;;;;;;;31.01;72.06;100741.50;5038327;28;70308;-34
2022/07/07 01:00:49;;;;;;;16.08;7.53;;;;;;;31.04;72.27;100738.34;5037079;28;66058;-35
2022/07/07 01:03:20;;;;;;;11.70;7.40;;;;;;;30.75;72.21;100684.84;5036459;28;69981;-33
2022/07/07 01:05:53;;;;;;;14.73;8.05;;;;;;;30.50;72.00;100653.22;5038352;28;66291;-33
2022/07/07 01:08:24;;;;;;;11.80;7.97;;;;;;;31.04;72.70;100724.78;5037266;28;70330;-33
2022/07/07 01:10:55;;;;;;;9.43;7.13;;;;;;;31.06;72.68;100733.50;5038107;28;66062;-33
2022/07/07 01:13:26;;;;;;;9.20;7.15;;;;;;;31.09;72.37;100732.22;5036897;28;70329;-33
2022/07/07 01:15:57;;;;;;;8.77;6.85;;;;;;;31.12;72.34;100731.78;5038288;28;66171;-33
2022/07/07 01:18:28;;;;;;;9.18;7.20;;;;;;;31.15;71.91;100736.78;5033667;28;69791;-32
2022/07/07 01:21:05;;;;;;;9.40;7.03;;;;;;;30.95;72.50;100699.03;5035200;28;66868;-34
2022/07/07 01:23:36;;;;;;;12.13;6.95;;;;;;;31.20;72.47;100744.19;5036520;28;69270;-33
2022/07/07 01:26:07;;;;;;;13.35;7.93;;;;;;;31.22;72.31;100747.53;5030048;28;65014;-33
2022/07/07 01:28:41;;;;;;;11.73;7.50;;;;;;;31.24;72.30;100750.84;4997520;28;69322;-32
2022/07/07 01:31:13;;;;;;;14.43;7.07;;;;;;;31.24;71.95;100757.09;5015123;28;65906;-33
2022/07/07 01:33:44;;;;;;;9.73;7.40;;;;;;;31.27;72.20;100748.50;5013766;28;70406;-33
2022/07/07 01:36:15;;;;;;;8.60;6.47;;;;;;;31.28;72.09;100747.44;5014367;28;66199;-33
2022/07/07 01:38:46;;;;;;;11.15;6.72;;;;;;;31.25;71.99;100741.66;5012272;28;70303;-33
2022/07/07 01:41:17;;;;;;;12.52;6.80;;;;;;;31.34;72.10;100746.56;5014034;28;66348;-33
2022/07/07 01:43:48;;;;;;;11.43;6.53;;;;;;;31.36;72.12;100746.34;5016773;28;70472;-33
2022/07/07 01:46:19;;;;;;;9.18;6.28;;;;;;;31.36;72.00;100739.03;5010012;28;67879;-34
2022/07/07 01:48:50;;;;;;;11.03;7.00;;;;;;;31.24;72.24;100719.13;5001945;28;70101;-34
2022/07/07 01:51:21;;;;;;;8.63;6.45;;;;;;;31.39;72.29;100735.84;5012457;28;65881;-34
2022/07/07 01:53:52;;;;;;;11.38;7.15;;;;;;;31.36;71.81;100719.22;5016041;28;69971;-31
2022/07/07 01:56:23;;;;;;;11.65;7.20;;;;;;;31.49;71.39;100721.78;5011828;28;65863;-33
2022/07/07 01:58:54;;;;;;;15.13;7.32;;;;;;;31.52;71.93;100729.47;5010926;28;69696;-34
2022/07/07 02:01:25;;;;;;;7.60;6.85;;;;;;;31.43;71.97;100717.28;5003045;28;65623;-33
2022/07/07 02:03:57;;;;;;;9.10;7.17;;;;;;;31.53;71.91;100727.56;5009423;28;69538;-33
2022/07/07 02:06:28;;;;;;;9.40;7.50;;;;;;;31.64;71.73;100721.38;5013675;28;65635;-32
2022/07/07 02:09:00;;;;;;;10.07;7.75;;;;;;;31.74;71.31;100723.53;5013507;28;70080;-33
2022/07/07 02:11:31;;;;;;;16.10;7.78;;;;;;;31.67;71.64;100722.78;4999747;28;66337;-32
2022/07/07 02:14:02;;;;;;;7.57;6.80;;;;;;;31.74;71.76;100734.41;5010462;28;71320;-33
2022/07/07 02:16:34;;;;;;;9.27;7.03;;;;;;;31.77;71.62;100731.22;5012950;28;66589;-33
2022/07/07 02:19:07;;;;;;;8.97;7.40;;;;;;;31.79;71.53;100731.81;5028577;28;68939;-31
2022/07/07 02:21:38;;;;;;;11.50;7.30;;;;;;;31.81;71.40;100735.09;5010257;28;66014;-33
2022/07/07 02:24:09;;;;;;;10.98;7.47;;;;;;;31.85;71.60;100736.31;5011168;28;69940;-31
2022/07/07 02:26:40;;;;;;;8.70;7.03;;;;;;;31.87;71.23;100734.19;5012645;28;65770;-34
2022/07/07 02:29:11;;;;;;;13.75;7.22;;;;;;;31.78;71.48;100708.44;5030116;28;69003;-31
2022/07/07 02:31:42;;;;;;;11.88;7.10;;;;;;;31.77;71.41;100702.22;5032901;28;66985;-32
2022/07/07 02:34:13;;;;;;;8.95;6.85;;;;;;;31.90;71.32;100728.31;5035411;28;69048;-32
2022/07/07 02:36:44;;;;;;;8.40;6.90;;;;;;;31.87;71.27;100717.91;5036864;28;67694;-32
2022/07/07 02:39:15;;;;;;;8.85;6.63;;;;;;;31.92;70.99;100723.50;5034810;28;70389;-31
2022/07/07 02:41:46;;;;;;;9.95;6.90;;;;;;;31.69;71.12;100677.31;5033250;28;67158;-32
2022/07/07 02:44:19;;;;;;;7.90;7.07;;;;;;;31.97;71.16;100718.22;5035312;28;69160;-33
2022/07/07 02:46:51;;;;;;;7.55;6.68;;;;;;;31.94;70.79;100715.97;5035506;28;66220;-31
2022/07/07 02:49:22;;;;;;;7.93;6.90;;;;;;;31.96;71.02;100713.84;5025110;28;70982;-32
2022/07/07 02:51:53;;;;;;;9.23;6.40;;;;;;;32.02;71.16;100726.50;5034312;28;66635;-32
2022/07/07 02:54:24;;;;;;;7.72;6.90;;;;;;;32.04;70.66;100718.97;5033434;28;69685;-32
2022/07/07 02:56:55;;;;;;;8.82;6.05;;;;;;;32.07;70.71;100724.97;5031234;28;65364;-31
2022/07/07 02:59:26;;;;;;;8.75;6.65;;;;;;;32.03;71.09;100713.75;5027751;28;69743;-33
2022/07/07 03:01:57;;;;;;;7.18;6.50;;;;;;;32.10;70.79;100721.81;5034606;28;68111;-32
2022/07/07 03:04:29;;;;;;;7.07;5.57;;;;;;;32.08;70.81;100715.78;4979081;28;69441;-32
2022/07/07 03:07:00;;;;;;;6.67;6.00;;;;;;;32.14;70.62;100706.69;5034042;28;66490;-32
2022/07/07 03:09:31;;;;;;;6.85;5.65;;;;;;;32.15;70.71;100708.34;5033172;28;70477;-31
2022/07/07 03:12:02;;;;;;;7.97;5.78;;;;;;;32.16;70.44;100710.84;5015904;28;64660;-32
2022/07/07 03:14:33;;;;;;;5.68;5.18;;;;;;;32.20;70.50;100717.44;5030463;28;70743;-32
2022/07/07 03:17:19;;;;;;;7.13;5.53;;;;;;;32.14;70.21;100701.28;5018679;28;66224;-32
2022/07/07 03:20:21;;;;;;;8.43;5.22;;;;;;;32.21;70.57;100712.84;5033675;28;70232;-31
2022/07/07 03:23:05;;;;;;;6.55;4.95;;;;;;;32.25;70.18;100714.03;4974206;28;66447;-31
2022/07/07 03:25:52;;;;;;;5.97;5.15;;;;;;;32.02;70.43;100672.22;4973432;28;69842;-31
2022/07/07 03:28:36;;;;;;;5.97;5.38;;;;;;;32.30;70.07;100706.03;4969943;28;64891;-32
2022/07/07 03:31:24;;;;;;;5.40;4.82;;;;;;;32.31;70.14;100698.69;4969321;28;69268;-31
2022/07/07 03:34:10;;;;;;;5.35;4.55;;;;;;;32.30;69.81;100689.72;4952256;28;65995;-30
2022/07/07 03:37:09;;;;;;;5.53;4.50;;;;;;;32.32;69.93;100682.19;4957796;28;69346;-32
2022/07/07 03:39:56;;;;;;;4.95;4.47;;;;;;;32.31;69.94;100680.50;4970699;28;65911;-32
2022/07/07 03:42:43;;;;;;;4.65;4.25;;;;;;;32.24;70.36;100666.25;4972062;28;70274;-32
2022/07/07 03:45:27;;;;;;;6.38;4.57;;;;;;;32.31;70.19;100675.09;4911019;28;66215;-31
2022/07/07 03:48:18;;;;;;;;;;;;;;;32.09;70.91;100657.72;4877749;29;70206;-31
2022/07/07 03:51:06;;;;;;;8.63;4.75;;;;;;;32.35;70.10;100660.00;4877445;29;66784;-32
2022/07/07 03:53:53;;;;;;;4.57;4.18;;;;;;;32.38;70.04;100653.28;4876842;29;70028;-32
2022/07/07 03:56:41;;;;;;;4.80;4.35;;;;;;;32.39;69.96;100650.31;4879765;29;65508;-31
2022/07/07 03:59:33;;;;;;;5.72;4.50;;;;;;;32.42;69.80;100644.41;4796162;29;69988;-32
2022/07/07 04:02:20;;;;;;;4.68;3.95;;;;;;;32.35;69.76;100632.84;4860031;29;66519;-30
2022/07/07 04:05:05;;;;;;;7.88;4.80;;;;;;;32.45;69.65;100637.69;4822407;29;69062;-31
2022/07/07 04:07:53;;;;;;;6.93;4.40;;;;;;;32.55;69.53;100656.13;4816725;29;65998;-31
2022/07/07 04:10:49;;;;;;;6.13;3.92;;;;;;;32.49;69.50;100634.28;4809003;29;69379;-32
2022/07/07 04:13:33;;;;;;;4.28;3.83;;;;;;;32.61;69.35;100647.03;4738986;29;66190;-37
2022/07/07 04:16:20;;;;;;;4.85;4.25;;;;;;;32.28;69.16;100577.84;4742019;29;69913;-31
2022/07/07 04:19:15;;;;;;;5.47;3.97;;;;;;;32.64;69.22;100635.69;4699086;30;64221;-31
2022/07/07 04:22:08;;;;;;;4.30;3.90;;;;;;;32.66;69.25;100633.56;4696360;30;69187;-32
2022/07/07 04:24:55;;;;;;;6.90;3.83;;;;;;;32.67;69.25;100630.59;4720010;29;65943;-32
2022/07/07 04:27:51;;;;;;;5.60;3.90;;;;;;;32.65;69.27;100621.88;4698501;30;70013;-31
2022/07/07 04:30:37;;;;;;;7.40;4.22;;;;;;;32.65;68.97;100615.59;4697208;30;65347;-32
2022/07/07 04:33:24;;;;;;;4.75;3.50;;;;;;;32.69;68.92;100622.22;4704049;30;70602;-31
2022/07/07 04:36:13;;;;;;;7.13;4.32;;;;;;;32.75;69.06;100610.41;4724059;29;66373;-32
2022/07/07 04:39:00;;;;;;;4.57;4.00;;;;;;;32.71;68.93;100603.81;4746787;29;70502;-31
2022/07/07 04:41:47;;;;;;;6.68;4.88;;;;;;;32.73;68.97;100601.66;4768949;29;66352;-31
2022/07/07 04:44:36;;;;;;;10.23;4.47;;;;;;;32.73;68.82;100596.22;4795454;29;68980;-31
2022/07/07 04:47:19;;;;;;;4.78;4.38;;;;;;;32.75;68.89;100599.53;4764609;29;66613;-30
2022/07/07 04:50:09;;;;;;;5.07;4.30;;;;;;;32.12;68.72;100480.88;4737455;29;70751;-31
2022/07/07 04:52:56;;;;;;;6.05;4.43;;;;;;;32.77;68.54;100589.25;4768581;29;65306;-33
2022/07/07 04:55:39;;;;;;;8.23;4.88;;;;;;;32.64;66.77;100575.94;4806677;29;69360;-30
2022/07/07 04:58:10;;;;;;;8.88;4.13;;;;;;;32.40;65.35;100548.81;4821837;29;65647;-32
2022/07/07 05:00:41;;;;;;;11.20;4.17;;;;;;;32.35;64.00;100562.28;4792155;29;70148;-30
2022/07/07 05:03:12;;;;;;;5.30;3.80;;;;;;;32.23;62.82;100575.88;4832258;29;66280;-30
2022/07/07 05:05:43;;;;;;;6.57;3.80;;;;;;;32.09;61.90;100565.47;4861435;29;70725;-30
2022/07/07 05:08:14;;;;;;;7.78;3.28;;;;;;;32.00;61.04;100562.28;4861343;29;65731;-32
2022/07/07 05:10:46;;;;;;;3.85;3.47;;;;;;;31.73;60.34;100524.75;4841826;29;69731;-32
2022/07/07 05:13:17;;;;;;;5.65;3.20;;;;;;;31.86;59.53;100556.22;4862076;29;64132;-31
2022/07/07 05:15:48;;;;;;;3.90;3.57;;;;;;;31.74;58.50;100541.84;4863280;29;69815;-31
2022/07/07 05:18:19;;;;;;;8.10;3.72;;;;;;;31.67;58.43;100544.66;4862746;29;66129;-31
2022/07/07 05:20:50;;;;;;;4.88;2.92;;;;;;;31.59;57.57;100542.28;4859669;29;71173;-31
2022/07/07 05:23:21;;;;;;;5.63;3.70;;;;;;;31.55;57.23;100536.50;4874492;29;67752;-30
2022/07/07 05:25:53;;;;;;;2.88;2.45;;;;;;;31.49;56.64;100532.03;4937083;28;69604;-30
2022/07/07 05:28:24;;;;;;;2.67;2.47;;;;;;;31.43;55.89;100537.56;5029594;28;66345;-30
2022/07/07 05:30:55;;;;;;;3.60;3.08;;;;;;;31.40;55.27;100538.84;5021817;28;70335;-31
2022/07/07 05:33:26;;;;;;;3.13;2.92;;;;;;;31.36;54.76;100532.22;5037891;28;66841;-31
2022/07/07 05:35:58;;;;;;;4.57;3.20;;;;;;;31.32;54.00;100525.59;5036111;28;69883;-30
2022/07/07 05:38:30;;;;;;;2.50;2.20;;;;;;;31.29;53.82;100526.06;5036715;28;67024;-32
2022/07/07 05:41:02;;;;;;;2.85;2.60;;;;;;;31.28;53.45;100530.63;5035457;28;69726;-31
2022/07/07 05:43:33;;;;;;;4.13;2.67;;;;;;;31.12;53.00;100505.03;5039468;28;65995;-33
2022/07/07 05:46:04;;;;;;;8.13;2.78;;;;;;;31.21;53.68;100523.69;5021288;28;70247;-34
2022/07/07 05:48:36;;;;;;;3.28;2.50;;;;;;;31.14;53.10;100511.03;5036035;28;65241;-33
2022/07/07 05:51:07;;;;;;;3.03;2.65;;;;;;;31.13;53.05;100517.53;5042635;28;70079;-32
2022/07/07 05:53:37;;;;;;;4.97;2.40;;;;;;;31.11;52.56;100514.22;5038428;28;66321;-33
2022/07/07 05:56:08;;;;;;;5.57;2.35;;;;;;;31.11;52.76;100519.63;5038200;28;70434;-32
2022/07/07 05:58:40;;;;;;;2.75;2.28;;;;;;;31.08;52.46;100511.97;5043171;28;66222;-32
2022/07/07 06:01:11;;;;;;;3.10;2.80;;;;;;;31.09;52.08;100508.22;5037684;28;68844;-32
2022/07/07 06:03:42;;;;;;;3.33;2.25;;;;;;;31.10;51.99;100509.84;5020364;28;66168;-32
2022/07/07 06:06:13;;;;;;;7.78;2.83;;;;;;;31.09;52.12;100505.50;5040920;28;69749;-31
2022/07/07 06:08:44;;;;;;;2.97;2.50;;;;;;;31.11;51.52;100503.38;5039451;28;66175;-33
2022/07/07 06:11:15;;;;;;;2.67;2.15;;;;;;;31.06;51.23;100489.69;5041373;28;70448;-33
2022/07/07 06:13:52;;;;;;;3.00;2.20;;;;;;;31.12;50.79;100488.78;5040082;28;65708;-32
2022/07/07 06:16:38;;;;;;;4.90;2.20;;;;;;;31.15;50.66;100482.91;5041418;28;69486;-40
2022/07/07 06:19:11;;;;;;;2.30;2.10;;;;;;;31.16;49.93;100491.84;5041842;28;66193;-33
2022/07/07 06:21:42;;;;;;;7.32;2.38;;;;;;;31.19;49.88;100480.53;5041231;28;70340;-33
2022/07/07 06:24:13;;;;;;;2.03;1.80;;;;;;;31.15;49.60;100466.66;5042170;28;66234;-32
2022/07/07 06:26:45;;;;;;;2.20;2.00;;;;;;;31.17;49.58;100471.81;5040415;28;69071;-33
2022/07/07 06:29:17;;;;;;;1.87;1.77;;;;;;;31.19;49.20;100466.19;5040465;28;65998;-33
2022/07/07 06:31:47;;;;;;;;;;;;;;;30.96;49.47;100465.06;5042188;28;69636;-33
2022/07/07 06:34:18;;;;;;;4.22;2.10;;;;;;;31.10;49.13;100435.88;5041931;28;66573;-33
2022/07/07 06:36:49;;;;;;;2.55;2.08;;;;;;;31.19;48.87;100447.22;5042431;28;69970;-33
2022/07/07 06:39:19;;;;;;;3.33;2.50;;;;;;;31.13;48.76;100430.81;5040387;28;65470;-33
2022/07/07 06:41:51;;;;;;;5.07;2.05;;;;;;;31.20;48.53;100438.84;5039032;28;71206;-33
2022/07/07 06:44:21;;;;;;;3.65;2.28;;;;;;;31.19;47.99;100439.91;5041587;28;66401;-33
2022/07/07 06:46:53;;;;;;;2.15;1.95;;;;;;;31.13;48.16;100422.69;5042291;28;69963;-32
2022/07/07 06:49:24;;;;;;;1.63;1.52;;;;;;;31.19;47.70;100429.06;5039108;28;65609;-32
2022/07/07 06:51:56;;;;;;;1.83;1.67;;;;;;;31.20;47.69;100427.19;5041309;28;68607;-33
2022/07/07 06:54:27;;;;;;;6.40;2.60;;;;;;;31.19;47.66;100420.13;5040380;28;65040;-33
2022/07/07 06:56:58;;;;;;;2.73;2.33;;;;;;;31.20;47.33;100425.28;5037712;28;70233;-33
2022/07/07 06:59:29;;;;;;;2.42;1.52;;;;;;;31.21;47.64;100410.69;5041246;28;67243;-33
2022/07/07 07:02:01;;;;;;;2.43;1.90;;;;;;;31.22;47.08;100411.53;5040356;28;69754;-33
2022/07/07 07:04:31;;;;;;;1.92;1.40;;;;;;;31.23;46.85;100405.03;5039590;28;67858;-33
2022/07/07 07:07:04;;;;;;;3.30;1.70;;;;;;;31.22;47.21;100400.69;5041082;28;69726;-29
2022/07/07 07:09:35;;;;;;;4.13;1.92;;;;;;;31.24;47.31;100398.56;5036410;28;66169;-28
2022/07/07 07:12:07;;;;;;;2.80;1.45;;;;;;;31.25;46.84;100394.78;5033927;28;70026;-29
2022/07/07 07:14:38;;;;;;;3.63;1.50;;;;;;;31.24;46.94;100387.72;5022352;28;65118;-29
2022/07/07 07:17:09;;;;;;;2.55;1.77;;;;;;;31.19;46.97;100387.59;5039891;28;69161;-30
2022/07/07 07:19:40;;;;;;;2.00;1.70;;;;;;;31.21;46.66;100385.50;5023187;28;65492;-30
2022/07/07 07:22:11;;;;;;;2.33;1.77;;;;;;;31.17;46.71;100379.69;5018924;28;68972;-30
2022/07/07 07:24:43;;;;;;;2.42;1.25;;;;;;;31.22;46.69;100379.00;5040150;28;65601;-28
2022/07/07 07:27:14;;;;;;;2.15;1.23;;;;;;;31.23;46.46;100380.63;5038616;28;68874;-29
2022/07/07 07:29:45;;;;;;;2.00;1.58;;;;;;;31.13;46.36;100354.97;5040138;28;66505;-30
2022/07/07 07:32:16;;;;;;;3.92;1.60;;;;;;;31.21;46.24;100355.69;5038458;28;70634;-30
2022/07/07 07:34:47;;;;;;;4.00;1.97;;;;;;;31.26;46.28;100359.34;5039880;28;66163;-31
2022/07/07 07:37:19;;;;;;;2.50;1.60;;;;;;;31.27;45.83;100349.31;5020223;28;70380;-32
2022/07/07 07:39:50;;;;;;;1.95;1.42;;;;;;;31.29;46.17;100349.91;5034335;28;67299;-31
2022/07/07 07:42:21;;;;;;;1.77;1.30;;;;;;;31.33;45.64;100359.22;5018045;28;70886;-30
2022/07/07 07:45:11;;;;;;;4.68;1.50;;;;;;;31.08;45.41;100318.81;5039560;28;66367;-30
2022/07/07 07:47:44;;;;;;;1.75;1.45;;;;;;;31.36;44.99;100370.44;5037193;28;70321;-30
2022/07/07 07:50:18;;;;;;;2.78;1.55;;;;;;;31.36;44.94;100347.94;5039853;28;65328;-31
2022/07/07 07:52:50;;;;;;;2.50;1.90;;;;;;;31.36;44.74;100328.97;5022105;28;69497;-31
2022/07/07 07:55:22;;;;;;;4.00;1.60;;;;;;;31.37;44.59;100330.59;5043340;28;66274;-31
2022/07/07 07:57:53;;;;;;;2.40;1.45;;;;;;;31.32;44.58;100330.47;5038571;28;70202;-31
2022/07/07 08:00:25;;;;;;;1.83;1.40;;;;;;;31.38;44.22;100340.41;5038489;28;64870;-31
2022/07/07 08:02:56;;;;;;;3.88;1.40;;;;;;;31.34;44.14;100336.47;5039473;28;70107;-33
2022/07/07 08:05:28;;;;;;;2.50;1.40;;;;;;;31.35;44.00;100336.25;5020368;28;66883;-32
2022/07/07 08:07:59;;;;;;;3.85;1.40;;;;;;;31.36;43.58;100327.06;5006184;28;70055;-32
2022/07/07 08:10:30;;;;;;;1.42;1.33;;;;;;;31.36;44.09;100326.25;4988700;28;65102;-31
2022/07/07 08:13:01;;;;;;;1.43;1.10;;;;;;;31.37;43.57;100327.88;5037807;28;69312;-31
2022/07/07 08:15:46;;;;;;;;;;;;;;;;;;;;;
2022/07/07 08:18:26;;;;;;;1.55;1.40;;;;;;;31.34;43.38;100315.63;5032528;28;70250;-30
2022/07/07 08:20:58;;;;;;;1.52;1.42;;;;;;;31.37;43.64;100322.47;5036483;28;65670;-31
2022/07/07 08:23:29;;;;;;;1.60;1.40;;;;;;;31.33;43.29;100315.84;5030809;28;69773;-30
2022/07/07 08:26:00;;;;;;;1.25;1.10;;;;;;;31.35;43.38;100316.44;5039846;28;66322;-31
2022/07/07 08:28:33;;;;;;;2.13;1.38;;;;;;;31.33;43.13;100305.00;5033063;28;69290;-30
2022/07/07 08:31:10;;;;;;;4.78;1.33;;;;;;;31.24;44.52;100288.28;5037370;28;66765;-31
2022/07/07 08:33:42;;;;;;;6.25;1.20;;;;;;;31.51;44.98;100313.03;5037416;28;69533;-31
2022/07/07 08:36:13;;;;;;;1.93;1.17;;;;;;;31.69;45.10;100313.94;5039540;28;65192;-31
2022/07/07 08:38:44;;;;;;;2.57;1.20;;;;;;;31.85;45.37;100312.38;5039462;28;69713;-32
2022/07/07 08:41:16;;;;;;;1.52;1.10;;;;;;;32.05;45.78;100308.19;5037574;28;66253;-31
2022/07/07 08:43:46;;;;;;;;;;;;;;;31.97;48.22;100305.88;5031792;28;70911;-31
2022/07/07 08:46:18;;;;;;;4.78;1.25;;;;;;;32.36;48.98;100300.63;5040385;28;66414;-31
2022/07/07 08:48:51;;;;;;;6.68;1.80;;;;;;;32.53;50.82;100294.41;5036509;28;70039;-31
2022/07/07 08:51:22;;;;;;;2.97;1.55;;;;;;;32.67;51.72;100293.03;5036212;28;66093;-32
2022/07/07 08:53:53;;;;;;;6.30;2.00;;;;;;;32.80;52.82;100287.28;5043252;28;69876;-31
2022/07/07 08:56:24;;;;;;;2.87;1.67;;;;;;;32.49;54.58;100232.47;5036778;28;65619;-32
2022/07/07 08:58:55;;;;;;;2.10;1.85;;;;;;;33.00;55.12;100296.84;5036777;28;70366;-32
2022/07/07 09:01:32;;;;;;;2.40;1.67;;;;;;;33.08;55.25;100288.25;5038525;28;65775;-31
2022/07/07 09:04:04;;;;;;;3.50;2.10;;;;;;;33.18;56.50;100291.09;5038292;28;70003;-31
2022/07/07 09:06:35;;;;;;;3.03;1.83;;;;;;;32.85;56.64;100222.16;5034332;28;66164;-32
2022/07/07 09:09:06;;;;;;;4.28;2.33;;;;;;;33.32;56.74;100281.56;5039603;28;70930;-32
2022/07/07 09:11:37;;;;;;;1.95;1.70;;;;;;;33.36;57.67;100285.41;5037726;28;65472;-31
2022/07/07 09:14:16;;;;;;;2.65;1.95;;;;;;;33.41;59.26;100286.56;5038376;28;69375;-32
2022/07/07 09:16:47;;;;;;;2.72;2.08;;;;;;;33.51;57.51;100278.50;5046269;28;65524;-32
2022/07/07 09:19:21;;;;;;;6.10;2.03;;;;;;;33.02;58.70;100194.19;5043792;28;70428;-32
2022/07/07 09:21:52;;;;;;;2.60;1.95;;;;;;;33.53;58.02;100270.97;5040387;28;65696;-32
2022/07/07 09:24:23;;;;;;;6.57;1.90;;;;;;;33.62;58.62;100283.03;5039136;28;69274;-31
2022/07/07 09:26:54;;;;;;;5.07;2.10;;;;;;;33.64;59.22;100286.31;5034880;28;67013;-31
2022/07/07 09:29:27;;;;;;;8.93;2.45;;;;;;;33.69;59.25;100300.00;5041885;28;69902;-31
2022/07/07 09:32:04;;;;;;;2.75;2.30;;;;;;;32.68;60.32;100142.59;5039679;28;65698;-32
2022/07/07 09:34:38;;;;;;;8.32;3.25;;;;;;;33.76;60.02;100338.69;5041682;28;70151;-32
2022/07/07 09:39:58;;;;;;;5.35;2.45;;;;;;;33.80;60.08;100331.69;5041088;28;70221;-32
2022/07/07 09:42:38;;;;;;;3.83;2.70;;;;;;;33.83;60.00;100343.13;5039064;28;66300;-31
2022/07/07 09:45:12;;;;;;;6.50;2.60;;;;;;;33.27;60.13;100253.47;5042555;28;69373;-33
2022/07/07 09:47:42;;;;;;;2.85;2.45;;;;;;;33.80;60.11;100342.56;5015988;28;65653;-35
2022/07/07 09:50:15;;;;;;;2.72;2.40;;;;;;;33.86;60.56;100351.59;5023235;28;69532;-31
2022/07/07 09:52:47;;;;;;;7.80;2.90;;;;;;;33.88;61.02;100351.34;5040971;28;65382;-32
2022/07/07 09:55:18;;;;;;;3.42;2.50;;;;;;;33.87;62.45;100349.69;5041646;28;69576;-31
2022/07/07 09:57:49;;;;;;;4.88;2.40;;;;;;;33.86;62.39;100348.06;5042802;28;66615;-31
2022/07/07 10:00:20;;;;;;;3.10;2.53;;;;;;;33.85;62.55;100352.69;5043132;28;69234;-31
2022/07/07 10:02:52;;;;;;;6.60;3.40;;;;;;;33.85;62.58;100346.41;5041789;28;65473;-32
2022/07/07 10:05:24;;;;;;;3.97;3.42;;;;;;;33.81;62.70;100330.59;5040950;28;69939;-32
2022/07/07 10:07:57;;;;;;;5.53;3.47;;;;;;;33.74;63.27;100307.38;5041469;28;66495;-31
2022/07/07 10:10:29;;;;;;;8.23;2.72;;;;;;;33.88;62.99;100340.47;5035175;28;69298;-31
2022/07/07 10:13:02;;;;;;;4.93;2.83;;;;;;;33.84;62.71;100350.22;5042028;28;65944;-32
2022/07/07 10:15:34;;;;;;;4.15;2.75;;;;;;;33.89;62.64;100374.78;5042741;28;70443;-31
2022/07/07 10:18:05;;;;;;;4.15;3.75;;;;;;;33.73;63.93;100371.84;5040467;28;65074;-32
2022/07/07 10:20:36;;;;;;;4.95;3.72;;;;;;;33.83;64.22;100400.28;5036840;28;69697;-32
2022/07/07 10:23:07;;;;;;;7.83;4.33;;;;;;;33.74;65.17;100400.69;5038428;28;67896;-33
2022/07/07 10:25:38;;;;;;;6.30;4.40;;;;;;;33.66;66.01;100403.84;5036573;28;70397;-32
2022/07/07 10:28:09;;;;;;;9.77;5.07;;;;;;;33.58;66.06;100407.81;5037547;28;66500;-32
2022/07/07 10:30:40;;;;;;;5.57;5.03;;;;;;;33.54;66.98;100400.41;5037167;28;70079;-32
2022/07/07 10:33:13;;;;;;;4.63;4.23;;;;;;;33.50;67.04;100396.53;5040992;28;66795;-32
2022/07/07 10:35:45;;;;;;;6.93;4.82;;;;;;;33.43;67.03;100398.56;5040386;28;69972;-31
2022/07/07 10:38:18;;;;;;;9.25;5.15;;;;;;;33.40;67.75;100415.38;5038592;28;65257;-32
2022/07/07 10:40:53;;;;;;;7.80;4.72;;;;;;;33.34;68.63;100419.94;5037852;28;69927;-32
2022/07/07 10:43:38;;;;;;;9.10;4.70;;;;;;;33.29;69.38;100447.88;5041280;28;65073;-32
2022/07/07 10:46:12;;;;;;;5.85;4.65;;;;;;;33.32;68.09;100458.25;5035301;28;70247;-32
2022/07/07 10:48:52;;;;;;;7.07;5.15;;;;;;;33.30;68.67;100484.03;4982445;28;66024;-32
2022/07/07 10:51:26;;;;;;;5.28;4.60;;;;;;;32.86;68.00;100370.50;5038869;28;69622;-33
2022/07/07 10:54:10;;;;;;;7.00;4.95;;;;;;;33.42;68.39;100465.72;5040271;28;64577;-32
2022/07/07 10:56:55;;;;;;;7.47;4.90;;;;;;;33.38;68.69;100459.16;5018475;28;69477;-34
2022/07/07 10:59:28;;;;;;;6.05;4.70;;;;;;;33.48;67.42;100472.06;5021234;28;65468;-32
2022/07/07 11:02:02;;;;;;;8.05;5.60;;;;;;;33.50;67.99;100483.53;5038638;28;70476;-32
2022/07/07 11:04:47;;;;;;;6.63;5.50;;;;;;;33.44;69.04;100503.56;5037533;28;66543;-32
2022/07/07 11:07:24;;;;;;;5.32;4.68;;;;;;;33.38;67.79;100481.72;5017623;28;69178;-32
2022/07/07 11:10:06;;;;;;;6.15;5.15;;;;;;;33.36;69.16;100485.75;5036344;28;65763;-32
2022/07/07 11:12:46;;;;;;;8.80;5.85;;;;;;;33.44;68.93;100476.38;5031382;28;70244;-32
2022/07/07 11:15:23;;;;;;;9.98;6.53;;;;;;;33.52;68.03;100475.97;5037401;28;66712;-32
2022/07/07 11:21:46;;;;;;;8.95;6.75;;;;;;;32.92;69.72;100385.78;5037974;28;65700;-33
2022/07/07 11:24:23;;;;;;;8.73;6.00;;;;;;;32.85;70.08;100384.34;5019132;28;69093;-32
2022/07/07 11:26:55;;;;;;;12.57;6.13;;;;;;;33.32;70.76;100477.28;5036510;28;66133;-32
2022/07/07 11:29:29;;;;;;;6.25;5.63;;;;;;;33.11;70.91;100457.06;5036784;28;70566;-32
2022/07/07 11:32:06;;;;;;;6.80;5.47;;;;;;;32.86;71.83;100438.41;5035815;28;65673;-32
2022/07/07 11:34:50;;;;;;;7.47;5.93;;;;;;;32.77;71.90;100429.00;5038780;28;70744;-33
2022/07/07 11:37:27;;;;;;;5.90;4.95;;;;;;;33.11;71.81;100480.72;5036850;28;66430;-33
2022/07/07 11:40:26;;;;;;;14.95;6.00;;;;;;;33.00;72.42;100476.16;5041995;28;69658;-33
2022/07/07 11:43:01;;;;;;;6.35;5.43;;;;;;;33.06;72.23;100469.75;5036739;28;65383;-32
2022/07/07 11:45:44;;;;;;;5.35;4.90;;;;;;;33.01;72.32;100461.50;5032212;28;69189;-32
2022/07/07 11:48:15;;;;;;;5.13;4.63;;;;;;;33.00;71.36;100476.16;5009108;28;64407;-32
2022/07/07 11:50:55;;;;;;;5.18;4.68;;;;;;;32.93;70.81;100482.56;5036777;28;69451;-32
2022/07/07 11:53:27;;;;;;;4.85;4.45;;;;;;;32.99;70.76;100501.63;5037751;28;66139;-32
2022/07/07 11:55:58;;;;;;;4.78;4.38;;;;;;;33.06;70.49;100513.22;5037935;28;70601;-32
2022/07/07 11:58:35;;;;;;;5.00;4.60;;;;;;;33.09;70.33;100510.00;5035841;28;66526;-31
2022/07/07 12:01:06;;;;;;;6.60;4.10;;;;;;;32.94;70.21;100489.63;5036914;28;69640;-32
2022/07/07 12:03:38;;;;;;;5.55;4.95;;;;;;;33.15;70.33;100522.63;5018564;28;65299;-34
2022/07/07 12:06:09;;;;;;;5.43;4.93;;;;;;;33.05;70.60;100506.16;5037293;28;69864;-32